Time,TemperatureF,DewpointF,PressureIn,WindDirection,WindDirectionDegrees,WindSpeedMPH,WindSpeedGustMPH,Humidity,HourlyPrecipIn,Conditions,Clouds,dailyrainin,SoftwareType,DateUTC
2013-04-18 00:04:00,26.8,21.0,30.05,SW,223,0.0,5.0,78,0.00,,,0.00,weatherlink.com 1.10,2013-04-18 06:04:00,
2013-04-18 00:19:00,26.4,20.0,30.07,SW,223,0.0,3.0,76,0.00,,,0.00,weatherlink.com 1.10,2013-04-18 06:19:00,
2013-04-18 00:34:00,25.8,19.0,30.07,SW,234,5.0,13.0,76,0.00,,,0.00,weatherlink.com 1.10,2013-04-18 06:34:00,
2013-04-18 00:49:00,25.5,19.0,30.07,SW,229,1.0,8.0,77,0.00,,,0.00,weatherlink.com 1.10,2013-04-18 06:49:00,
2013-04-18 01:04:00,24.6,18.0,30.08,SW,229,2.0,3.0,77,0.00,,,0.00,weatherlink.com 1.10,2013-04-18 07:04:00,
2013-04-18 01:19:00,23.9,18.0,30.09,SW,229,0.0,2.0,77,0.00,,,0.00,weatherlink.com 1.10,2013-04-18 07:19:00,
2013-04-18 01:34:00,23.2,17.0,30.10,SW,229,1.0,5.0,78,0.00,,,0.00,weatherlink.com 1.10,2013-04-18 07:34:00,
2013-04-18 01:49:00,23.6,17.0,30.10,SW,229,2.0,6.0,76,0.00,,,0.00,weatherlink.com 1.10,2013-04-18 07:49:00,
2013-04-18 02:04:00,24.1,17.0,30.10,SW,225,2.0,6.0,75,0.00,,,0.00,weatherlink.com 1.10,2013-04-18 08:04:00,
2013-04-18 02:19:00,23.7,17.0,30.10,SW,225,3.0,4.0,76,0.00,,,0.00,weatherlink.com 1.10,2013-04-18 08:19:00,
2013-04-18 02:34:00,22.8,16.0,30.11,SW,225,1.0,3.0,76,0.00,,,0.00,weatherlink.com 1.10,2013-04-18 08:34:00,
2013-04-18 02:49:00,22.6,17.0,30.11,SW,225,2.0,5.0,78,0.00,,,0.00,weatherlink.com 1.10,2013-04-18 08:49:00,
2013-04-18 03:04:00,22.7,16.0,30.11,SW,225,0.0,5.0,75,0.00,,,0.00,weatherlink.com 1.10,2013-04-18 09:04:00,
2013-04-18 03:19:00,22.2,15.0,30.11,SW,225,2.0,3.0,75,0.00,,,0.00,weatherlink.com 1.10,2013-04-18 09:19:00,
2013-04-18 03:34:00,22.4,16.0,30.11,SSW,210,3.0,10.0,75,0.00,,,0.00,weatherlink.com 1.10,2013-04-18 09:34:00,
2013-04-18 03:49:00,22.3,16.0,30.11,SSW,205,4.0,7.0,75,0.00,,,0.00,weatherlink.com 1.10,2013-04-18 09:49:00,
2013-04-18 04:04:00,21.7,15.0,30.12,SSW,202,7.0,7.0,75,0.00,,,0.00,weatherlink.com 1.10,2013-04-18 10:04:00,
2013-04-18 04:19:00,21.7,14.0,30.13,SSW,198,2.0,5.0,73,0.00,,,0.00,weatherlink.com 1.10,2013-04-18 10:19:00,
2013-04-18 04:34:00,21.7,14.0,30.14,SSW,198,0.0,5.0,73,0.00,,,0.00,weatherlink.com 1.10,2013-04-18 10:34:00,
2013-04-18 04:49:00,20.4,14.0,30.15,SSW,198,0.0,1.0,76,0.00,,,0.00,weatherlink.com 1.10,2013-04-18 10:49:00,
2013-04-18 05:04:00,19.9,14.0,30.15,SSW,198,0.0,4.0,78,0.00,,,0.00,weatherlink.com 1.10,2013-04-18 11:04:00,
2013-04-18 05:19:00,20.4,14.0,30.16,SSW,198,0.0,3.0,76,0.00,,,0.00,weatherlink.com 1.10,2013-04-18 11:19:00,
2013-04-18 05:36:00,19.9,14.0,30.16,SSW,198,2.0,3.0,77,0.00,,,0.00,weatherlink.com 1.10,2013-04-18 11:36:00,
2013-04-18 05:50:00,20.3,14.0,30.17,SSW,198,0.0,4.0,77,0.00,,,0.00,weatherlink.com 1.10,2013-04-18 11:50:00,
2013-04-18 06:05:00,20.5,15.0,30.17,SSW,198,1.0,4.0,78,0.00,,,0.00,weatherlink.com 1.10,2013-04-18 12:05:00,
2013-04-18 06:20:00,21.5,15.0,30.19,SSW,199,0.0,7.0,76,0.00,,,0.00,weatherlink.com 1.10,2013-04-18 12:20:00,
2013-04-18 06:35:00,21.1,15.0,30.20,SSW,200,3.0,4.0,77,0.00,,,0.00,weatherlink.com 1.10,2013-04-18 12:35:00,
2013-04-18 06:50:00,20.8,15.0,30.21,SSW,205,2.0,4.0,78,0.00,,,0.00,weatherlink.com 1.10,2013-04-18 12:50:00,
2013-04-18 07:05:00,21.1,16.0,30.22,SSW,206,4.0,7.0,79,0.00,,,0.00,weatherlink.com 1.10,2013-04-18 13:05:00,
2013-04-18 07:20:00,21.5,17.0,30.23,SSW,206,5.0,6.0,81,0.00,,,0.00,weatherlink.com 1.10,2013-04-18 13:20:00,
2013-04-18 07:35:00,21.6,18.0,30.24,SSW,207,1.0,7.0,84,0.00,,,0.00,weatherlink.com 1.10,2013-04-18 13:35:00,
2013-04-18 07:50:00,21.9,18.0,30.25,SSW,207,5.0,7.0,86,0.00,,,0.00,weatherlink.com 1.10,2013-04-18 13:50:00,
2013-04-18 08:05:00,22.3,19.0,30.26,SSW,210,5.0,7.0,86,0.00,,,0.00,weatherlink.com 1.10,2013-04-18 14:05:00,
2013-04-18 08:20:00,23.0,19.0,30.27,SSW,211,2.0,7.0,85,0.00,,,0.00,weatherlink.com 1.10,2013-04-18 14:20:00,
2013-04-18 08:35:00,23.4,19.0,30.28,SW,218,6.0,8.0,83,0.00,,,0.00,weatherlink.com 1.10,2013-04-18 14:35:00,
2013-04-18 08:50:00,23.6,18.0,30.28,WSW,252,3.0,9.0,78,0.00,,,0.00,weatherlink.com 1.10,2013-04-18 14:50:00,
2013-04-18 09:05:00,24.1,18.0,30.29,WSW,253,2.0,9.0,77,0.00,,,0.00,weatherlink.com 1.10,2013-04-18 15:05:00,
2013-04-18 09:20:00,24.6,18.0,30.30,WSW,254,3.0,6.0,77,0.00,,,0.00,weatherlink.com 1.10,2013-04-18 15:20:00,
2013-04-18 09:35:00,24.9,17.0,30.30,West,268,3.0,9.0,73,0.00,,,0.00,weatherlink.com 1.10,2013-04-18 15:35:00,
2013-04-18 09:50:00,25.3,17.0,30.31,West,269,3.0,9.0,71,0.00,,,0.00,weatherlink.com 1.10,2013-04-18 15:50:00,
2013-04-18 10:05:00,26.3,17.0,30.32,NW,310,4.0,9.0,67,0.00,,,0.00,weatherlink.com 1.10,2013-04-18 16:05:00,
2013-04-18 10:20:00,26.9,17.0,30.32,West,277,6.0,10.0,67,0.00,,,0.00,weatherlink.com 1.10,2013-04-18 16:20:00,
2013-04-18 10:36:00,27.9,14.0,30.32,NNW,331,5.0,12.0,57,0.00,,,0.00,weatherlink.com 1.10,2013-04-18 16:36:00,
2013-04-18 11:06:00,27.3,15.0,30.33,West,273,4.0,11.0,60,0.00,,,0.00,weatherlink.com 1.10,2013-04-18 17:06:00,
2013-04-18 11:21:00,27.7,16.0,30.34,West,272,3.0,7.0,63,0.00,,,0.00,weatherlink.com 1.10,2013-04-18 17:21:00,
2013-04-18 11:36:00,27.9,17.0,30.34,West,271,1.0,6.0,64,0.00,,,0.00,weatherlink.com 1.10,2013-04-18 17:36:00,
2013-04-18 11:51:00,29.2,16.0,30.34,WSW,250,2.0,8.0,57,0.00,,,0.00,weatherlink.com 1.10,2013-04-18 17:51:00,
2013-04-18 12:06:00,30.0,15.0,30.34,WNW,282,4.0,7.0,55,0.00,,,0.00,weatherlink.com 1.10,2013-04-18 18:06:00,
2013-04-18 12:21:00,30.1,14.0,30.34,WNW,284,0.0,5.0,51,0.02,,,0.02,weatherlink.com 1.10,2013-04-18 18:21:00,
2013-04-18 12:36:00,30.7,16.0,30.35,West,279,4.0,8.0,55,0.02,,,0.02,weatherlink.com 1.10,2013-04-18 18:36:00,
2013-04-18 12:52:00,29.7,20.0,30.36,WSW,250,6.0,14.0,67,0.03,,,0.03,weatherlink.com 1.10,2013-04-18 18:52:00,
2013-04-18 13:06:00,29.1,20.0,30.37,WSW,254,8.0,12.0,69,0.03,,,0.03,weatherlink.com 1.10,2013-04-18 19:06:00,
2013-04-18 13:21:00,28.8,20.0,30.38,WSW,256,7.0,12.0,70,0.01,,,0.03,weatherlink.com 1.10,2013-04-18 19:21:00,
2013-04-18 13:36:00,29.4,20.0,30.39,WSW,241,8.0,11.0,67,0.01,,,0.03,weatherlink.com 1.10,2013-04-18 19:36:00,
2013-04-18 13:51:00,29.2,19.0,30.39,WSW,254,4.0,9.0,65,0.00,,,0.03,weatherlink.com 1.10,2013-04-18 19:51:00,
2013-04-18 14:06:00,29.0,19.0,30.40,West,259,4.0,10.0,67,0.00,,,0.03,weatherlink.com 1.10,2013-04-18 20:06:00,
2013-04-18 14:21:00,29.1,19.0,30.41,WSW,258,5.0,11.0,66,0.00,,,0.03,weatherlink.com 1.10,2013-04-18 20:21:00,
2013-04-18 14:36:00,29.3,19.0,30.41,West,259,2.0,7.0,65,0.00,,,0.03,weatherlink.com 1.10,2013-04-18 20:36:00,
2013-04-18 14:51:00,30.3,17.0,30.41,West,259,4.0,7.0,59,0.00,,,0.03,weatherlink.com 1.10,2013-04-18 20:51:00,
2013-04-18 15:06:00,30.2,17.0,30.41,West,259,2.0,7.0,58,0.00,,,0.03,weatherlink.com 1.10,2013-04-18 21:06:00,
2013-04-18 15:21:00,30.8,17.0,30.42,West,259,3.0,5.0,57,0.00,,,0.03,weatherlink.com 1.10,2013-04-18 21:21:00,
2013-04-18 15:51:00,30.9,15.0,30.43,West,259,2.0,11.0,51,0.00,,,0.03,weatherlink.com 1.10,2013-04-18 21:51:00,
2013-04-18 16:06:00,30.5,17.0,30.43,West,262,3.0,7.0,57,0.00,,,0.03,weatherlink.com 1.10,2013-04-18 22:06:00,
2013-04-18 16:21:00,32.6,17.0,30.43,West,263,0.0,5.0,53,0.00,,,0.03,weatherlink.com 1.10,2013-04-18 22:21:00,
2013-04-18 16:36:00,32.3,18.0,30.43,WSW,255,2.0,9.0,56,0.00,,,0.03,weatherlink.com 1.10,2013-04-18 22:36:00,
2013-04-18 16:52:00,34.1,17.0,30.43,WSW,253,5.0,9.0,50,0.00,,,0.03,weatherlink.com 1.10,2013-04-18 22:52:00,
2013-04-18 17:07:00,34.7,16.0,30.43,WSW,258,4.0,11.0,46,0.00,,,0.03,weatherlink.com 1.10,2013-04-18 23:07:00,
2013-04-18 17:22:00,33.0,15.0,30.44,SW,232,4.0,11.0,48,0.00,,,0.03,weatherlink.com 1.10,2013-04-18 23:22:00,
2013-04-18 17:37:00,33.0,14.0,30.44,SW,232,4.0,11.0,45,0.00,,,0.03,weatherlink.com 1.10,2013-04-18 23:37:00,
2013-04-18 17:52:00,32.9,14.0,30.45,SW,231,4.0,8.0,45,0.00,,,0.03,weatherlink.com 1.10,2013-04-18 23:52:00,
2013-04-18 18:07:00,33.2,13.0,30.46,WNW,284,3.0,11.0,43,0.00,,,0.03,weatherlink.com 1.10,2013-04-19 00:07:00,
2013-04-18 18:22:00,32.5,14.0,30.47,WSW,252,6.0,9.0,47,0.00,,,0.03,weatherlink.com 1.10,2013-04-19 00:22:00,
2013-04-18 18:38:00,33.6,14.0,30.45,WSW,245,6.0,10.0,45,0.00,,,0.03,weatherlink.com 1.10,2013-04-19 00:38:00,
2013-04-18 18:53:00,34.4,13.0,30.46,WSW,240,9.0,10.0,41,0.00,,,0.03,weatherlink.com 1.10,2013-04-19 00:53:00,
2013-04-18 19:08:00,33.6,13.0,30.46,SW,236,3.0,9.0,42,0.00,,,0.03,weatherlink.com 1.10,2013-04-19 01:08:00,
2013-04-18 19:23:00,32.4,12.0,30.48,WSW,238,1.0,5.0,43,0.00,,,0.03,weatherlink.com 1.10,2013-04-19 01:23:00,
2013-04-18 19:38:00,31.5,16.0,30.50,NNE,32,2.0,9.0,54,0.00,,,0.03,weatherlink.com 1.10,2013-04-19 01:38:00,
2013-04-18 19:53:00,29.9,16.0,30.50,NNE,32,2.0,5.0,57,0.00,,,0.03,weatherlink.com 1.10,2013-04-19 01:53:00,
2013-04-18 20:08:00,28.9,15.0,30.50,NNE,33,0.0,4.0,57,0.00,,,0.03,weatherlink.com 1.10,2013-04-19 02:08:00,
2013-04-18 20:23:00,27.6,15.0,30.51,NNE,33,1.0,2.0,59,0.00,,,0.03,weatherlink.com 1.10,2013-04-19 02:23:00,
2013-04-18 20:38:00,26.2,14.0,30.52,NNE,33,1.0,2.0,61,0.00,,,0.03,weatherlink.com 1.10,2013-04-19 02:38:00,
2013-04-18 20:53:00,25.4,14.0,30.52,NNE,33,0.0,2.0,62,0.00,,,0.03,weatherlink.com 1.10,2013-04-19 02:53:00,
2013-04-18 21:08:00,25.3,13.0,30.54,NNE,33,0.0,0.0,60,0.00,,,0.03,weatherlink.com 1.10,2013-04-19 03:08:00,
2013-04-18 21:23:00,24.6,13.0,30.55,NNE,33,0.0,2.0,61,0.00,,,0.03,weatherlink.com 1.10,2013-04-19 03:23:00,
2013-04-18 21:38:00,23.6,13.0,30.56,NNE,33,0.0,3.0,63,0.00,,,0.03,weatherlink.com 1.10,2013-04-19 03:38:00,
2013-04-18 21:53:00,23.0,13.0,30.57,NNE,33,2.0,3.0,66,0.00,,,0.03,weatherlink.com 1.10,2013-04-19 03:53:00,
2013-04-18 22:08:00,23.4,13.0,30.57,NNE,33,0.0,1.0,64,0.00,,,0.03,weatherlink.com 1.10,2013-04-19 04:08:00,
2013-04-18 22:23:00,23.9,11.0,30.58,NNE,33,0.0,1.0,57,0.00,,,0.03,weatherlink.com 1.10,2013-04-19 04:23:00,
2013-04-18 22:38:00,22.7,10.0,30.58,NNE,33,2.0,2.0,59,0.00,,,0.03,weatherlink.com 1.10,2013-04-19 04:38:00,
2013-04-18 22:53:00,22.2,9.0,30.59,NNE,33,2.0,4.0,56,0.00,,,0.03,weatherlink.com 1.10,2013-04-19 04:53:00,
2013-04-18 23:08:00,24.8,8.0,30.60,West,263,2.0,10.0,48,0.00,,,0.03,weatherlink.com 1.10,2013-04-19 05:08:00,
2013-04-18 23:23:00,25.8,8.0,30.60,WSW,254,3.0,7.0,46,0.00,,,0.03,weatherlink.com 1.10,2013-04-19 05:23:00,
2013-04-18 23:38:00,24.6,7.0,30.61,WSW,253,0.0,6.0,48,0.00,,,0.03,weatherlink.com 1.10,2013-04-19 05:38:00,
2013-04-18 23:53:00,23.4,7.0,30.62,WSW,253,1.0,7.0,49,0.00,,,0.03,weatherlink.com 1.10,2013-04-19 05:53:00,